Time;durP1;ratioP1;P1;durP2;ratioP2;P2;SDS_P1;SDS_P2;PMS_P1;PMS_P2;Temp;Humidity;BMP_temperature;BMP_pressure;BME280_temperature;BME280_humidity;BME280_pressure;Samples;Min_cycle;Max_cycle;Signal;HPM_P1;HPM_P2
2021/11/13 00:00:06;;;;;;;;;;;;;;;;;;348488;28;474;-77
2021/11/13 00:00:18;;;;;;;;;;;;;;;;;;348368;28;1027;-76
2021/11/13 00:00:29;;;;;;;;;;;;;;;;;;348320;28;809;-76
2021/11/13 00:00:40;;;;;;;;;;;;;;;;;;348300;28;829;-76
2021/11/13 00:00:50;;;;;;;;;;;;;;;;;;348503;28;817;-78
2021/11/13 00:01:01;;;;;;;;;;;;;;;;;;348424;28;817;-78
2021/11/13 00:01:11;;;;;;;;;;;;;;;;;;348445;28;1149;-78
2021/11/13 00:01:21;;;;;;;;;;;;;;;;;;348431;28;925;-77
2021/11/13 00:01:32;;;;;;;;;;;;;;;;;;349665;28;876;-77
2021/11/13 00:01:42;;;;;;;;;;;;;;;;;;349917;28;916;-78
2021/11/13 00:01:53;;;;;;;;;;;;;;;;;;349900;28;1031;-76
2021/11/13 00:02:03;;;;;;;;;;;;;;;;;;349972;28;792;-78
2021/11/13 00:02:13;;;;;;;;;;;;;;;;;;349927;28;812;-78
2021/11/13 00:02:24;;;;;;;;;;;;;;;;;;349919;28;810;-77
2021/11/13 00:02:34;;;;;;;;;;;;;;;;;;349933;28;794;-77
2021/11/13 00:02:45;;;;;;;;;;;;;;;;;;349796;28;836;-76
2021/11/13 00:02:56;;;;;;;;;;;;;;;;;;348305;28;1015;-77
2021/11/13 00:03:07;;;;;;;;;;;;;;;;;;348393;28;1151;-79
2021/11/13 00:03:18;;;;;;;;;;;;;;;;;;348458;28;924;-79
2021/11/13 00:03:28;;;;;;;;;;;;;;;;;;348413;28;782;-78
2021/11/13 00:04:04;;;;;;;;;;;;;;;;;;348321;28;1060;-79
2021/11/13 00:04:15;;;;;;;;;;;;;;;;;;347030;28;1605;-79
2021/11/13 00:04:25;;;;;;;;;;;;;;;;;;347106;28;853;-80
2021/11/13 00:04:38;;;;;;;;;;;;;;;;;;347375;28;853;-79
2021/11/13 00:04:48;;;;;;;;;;;;;;;;;;348420;28;848;-78
2021/11/13 00:04:59;;;;;;;;;;;;;;;;;;348395;28;988;-78
2021/11/13 00:05:09;;;;;;;;;;;;;;;;;;348537;28;853;-79
2021/11/13 00:05:20;;;;;;;;;;;;;;;;;;349682;28;915;-78
2021/11/13 00:05:31;;;;;;;;;;;;;;;;;;349737;28;963;-79
2021/11/13 00:05:41;;;;;;;;;;;;;;;;;;349806;28;860;-79
2021/11/13 00:05:51;;;;;;;;;;;;;;;;;;349783;28;1028;-79
2021/11/13 00:06:02;;;;;;;;;;;;;;;;;;349794;28;1027;-79
2021/11/13 00:06:12;;;;;;;;;;;;;;;;;;349821;28;1011;-79
2021/11/13 00:06:23;;;;;;;;;;;;;;;;;;349957;28;852;-79
2021/11/13 00:06:34;;;;;;;;;;;;;;;;;;349831;28;1031;-80
2021/11/13 00:06:44;;;;;;;;;;;;;;;;;;349798;28;786;-78
2021/11/13 00:06:55;;;;;;;;;;;;;;;;;;349827;28;964;-80
2021/11/13 00:07:05;;;;;;;;;;;;;;;;;;349865;28;967;-78
2021/11/13 00:07:16;;;;;;;;;;;;;;;;;;348459;28;979;-79
2021/11/13 00:07:26;;;;;;;;;;;;;;;;;;348321;28;901;-78
2021/11/13 00:07:37;;;;;;;;;;;;;;;;;;348390;28;976;-77
2021/11/13 00:07:47;;;;;;;;;;;;;;;;;;348486;28;785;-79
2021/11/13 00:07:57;;;;;;;;;;;;;;;;;;348369;28;979;-79
2021/11/13 00:08:08;;;;;;;;;;;;;;;;;;348436;28;876;-79
2021/11/13 00:08:19;;;;;;;;;;;;;;;;;;348403;28;924;-78
2021/11/13 00:08:29;;;;;;;;;;;;;;;;;;348507;28;1018;-78
2021/11/13 00:08:39;;;;;;;;;;;;;;;;;;348478;28;1019;-79
2021/11/13 00:09:05;;;;;;;;;;;;;;;;;;348437;28;1020;-78
2021/11/13 00:09:16;;;;;;;;;;;;;;;;;;348427;28;925;-78
2021/11/13 00:09:27;;;;;;;;;;;;;;;;;;348371;28;849;-79
2021/11/13 00:09:37;;;;;;;;;;;;;;;;;;348352;28;971;-76
2021/11/13 00:09:48;;;;;;;;;;;;;;;;;;348440;28;844;-78
2021/11/13 00:09:58;;;;;;;;;;;;;;;;;;348403;28;1027;-78
2021/11/13 00:10:10;;;;;;;;;;;;;;;;;;348429;28;860;-78
2021/11/13 00:10:26;;;;;;;;;;;;;;;;;;349790;28;954;-79
2021/11/13 00:10:57;;;;;;;;;;;;;;;;;;349703;28;840;-78
2021/11/13 00:11:10;;;;;;;;;;;;;;;;;;345555;28;1203;-79
2021/11/13 00:11:20;;;;;;;;;;;;;;;;;;345885;28;885;-79
2021/11/13 00:11:30;;;;;;;;;;;;;;;;;;348037;28;1110;-80
2021/11/13 00:11:41;;;;;;;;;;;;;;;;;;348469;28;885;-79
2021/11/13 00:12:07;;;;;;;;;;;;;;;;;;346871;28;1588;-79
2021/11/13 00:12:17;;;;;;;;;;;;;;;;;;346995;28;991;-79
2021/11/13 00:12:28;;;;;;;;;;;;;;;;;;347067;28;924;-78
2021/11/13 00:12:38;;;;;;;;;;;;;;;;;;347619;28;1478;-78
2021/11/13 00:12:49;;;;;;;;;;;;;;;;;;348432;28;897;-78
2021/11/13 00:13:00;;;;;;;;;;;;;;;;;;348370;28;980;-79
2021/11/13 00:13:11;;;;;;;;;;;;;;;;;;348365;28;1541;-78
2021/11/13 00:13:27;;;;;;;;;;;;;;;;;;348427;28;877;-76
2021/11/13 00:13:55;;;;;;;;;;;;;;;;;;348438;28;1054;-78
2021/11/13 00:14:05;;;;;;;;;;;;;;;;;;349768;28;900;-79
2021/11/13 00:14:20;;;;;;;;;;;;;;;;;;349834;28;818;-79
2021/11/13 00:14:31;;;;;;;;;;;;;;;;;;349774;28;1007;-78
2021/11/13 00:14:44;;;;;;;;;;;;;;;;;;349857;28;821;-79
2021/11/13 00:14:54;;;;;;;;;;;;;;;;;;349835;28;987;-79
2021/11/13 00:15:06;;;;;;;;;;;;;;;;;;348852;28;1067;-79
2021/11/13 00:15:20;;;;;;;;;;;;;;;;;;350371;28;825;-78
2021/11/13 00:15:46;;;;;;;;;;;;;;;;;;351100;28;841;-79
2021/11/13 00:15:56;;;;;;;;;;;;;;;;;;351156;28;944;-79
2021/11/13 00:16:08;;;;;;;;;;;;;;;;;;349783;28;1291;-78
2021/11/13 00:16:18;;;;;;;;;;;;;;;;;;349751;28;837;-79
2021/11/13 00:16:33;;;;;;;;;;;;;;;;;;349716;28;1898;-79
2021/11/13 00:16:43;;;;;;;;;;;;;;;;;;349820;28;1010;-79
2021/11/13 00:16:55;;;;;;;;;;;;;;;;;;349878;28;987;-78
2021/11/13 00:17:05;;;;;;;;;;;;;;;;;;351066;28;916;-78
2021/11/13 00:17:16;;;;;;;;;;;;;;;;;;351259;28;813;-79
2021/11/13 00:18:39;;;;;;;;;;;;;;;;;;346991;28;1020;-79
2021/11/13 00:18:49;;;;;;;;;;;;;;;;;;346924;28;1025;-79
2021/11/13 00:19:01;;;;;;;;;;;;;;;;;;346743;28;950;-79
2021/11/13 00:19:12;;;;;;;;;;;;;;;;;;346970;28;999;-79
2021/11/13 00:19:22;;;;;;;;;;;;;;;;;;347081;28;992;-78
2021/11/13 00:19:32;;;;;;;;;;;;;;;;;;346963;28;837;-78
2021/11/13 00:19:55;;;;;;;;;;;;;;;;;;347021;28;932;-79
2021/11/13 00:20:06;;;;;;;;;;;;;;;;;;346978;28;810;-79
2021/11/13 00:20:17;;;;;;;;;;;;;;;;;;345644;28;936;-80
2021/11/13 00:20:28;;;;;;;;;;;;;;;;;;345580;28;806;-77
2021/11/13 00:20:38;;;;;;;;;;;;;;;;;;345491;28;1093;-78
2021/11/13 00:20:51;;;;;;;;;;;;;;;;;;345541;28;888;-78
2021/11/13 00:21:03;;;;;;;;;;;;;;;;;;345569;28;940;-78
2021/11/13 00:21:14;;;;;;;;;;;;;;;;;;345703;28;787;-79
2021/11/13 00:21:24;;;;;;;;;;;;;;;;;;345612;28;850;-78
2021/11/13 00:21:35;;;;;;;;;;;;;;;;;;345690;28;822;-78
2021/11/13 00:21:45;;;;;;;;;;;;;;;;;;345652;28;826;-78
2021/11/13 00:21:58;;;;;;;;;;;;;;;;;;345645;28;912;-78
2021/11/13 00:22:09;;;;;;;;;;;;;;;;;;345716;28;798;-78
2021/11/13 00:22:45;;;;;;;;;;;;;;;;;;347041;28;857;-79
2021/11/13 00:22:57;;;;;;;;;;;;;;;;;;346930;28;952;-78
2021/11/13 00:23:07;;;;;;;;;;;;;;;;;;346981;28;928;-79
2021/11/13 00:23:19;;;;;;;;;;;;;;;;;;346983;28;996;-78
2021/11/13 00:23:56;;;;;;;;;;;;;;;;;;348590;28;998;-75
2021/11/13 00:24:06;;;;;;;;;;;;;;;;;;351293;28;966;-77
2021/11/13 00:24:17;;;;;;;;;;;;;;;;;;351281;28;928;-76
2021/11/13 00:24:28;;;;;;;;;;;;;;;;;;351265;28;864;-77
2021/11/13 00:24:38;;;;;;;;;;;;;;;;;;351265;28;860;-78
2021/11/13 00:25:04;;;;;;;;;;;;;;;;;;351341;28;987;-77
2021/11/13 00:25:15;;;;;;;;;;;;;;;;;;351203;28;856;-77
2021/11/13 00:25:26;;;;;;;;;;;;;;;;;;351304;28;837;-75
2021/11/13 00:25:36;;;;;;;;;;;;;;;;;;351241;28;877;-75
2021/11/13 00:25:47;;;;;;;;;;;;;;;;;;351163;28;968;-75
2021/11/13 00:25:58;;;;;;;;;;;;;;;;;;351293;28;967;-77
2021/11/13 00:26:09;;;;;;;;;;;;;;;;;;351106;28;1309;-77
2021/11/13 00:26:19;;;;;;;;;;;;;;;;;;351227;28;915;-77
2021/11/13 00:26:30;;;;;;;;;;;;;;;;;;351150;28;845;-76
2021/11/13 00:26:40;;;;;;;;;;;;;;;;;;351216;28;896;-76
2021/11/13 00:27:16;;;;;;;;;;;;;;;;;;351165;28;991;-76
2021/11/13 00:27:27;;;;;;;;;;;;;;;;;;351059;28;1043;-77
2021/11/13 00:27:52;;;;;;;;;;;;;;;;;;351145;28;1089;-76
2021/11/13 00:28:03;;;;;;;;;;;;;;;;;;351227;28;1031;-77
2021/11/13 00:28:13;;;;;;;;;;;;;;;;;;351248;28;919;-76
2021/11/13 00:28:24;;;;;;;;;;;;;;;;;;351294;28;944;-77
2021/11/13 00:28:35;;;;;;;;;;;;;;;;;;351313;28;954;-78
2021/11/13 00:28:45;;;;;;;;;;;;;;;;;;351260;28;1015;-77
2021/11/13 00:28:56;;;;;;;;;;;;;;;;;;351164;28;1055;-77
2021/11/13 00:29:18;;;;;;;;;;;;;;;;;;351168;28;876;-76
2021/11/13 00:29:29;;;;;;;;;;;;;;;;;;351168;28;872;-77
2021/11/13 00:29:39;;;;;;;;;;;;;;;;;;351085;28;1003;-77
2021/11/13 00:29:49;;;;;;;;;;;;;;;;;;349810;28;877;-76
2021/11/13 00:30:04;;;;;;;;;;;;;;;;;;348380;28;916;-75
2021/11/13 00:30:15;;;;;;;;;;;;;;;;;;348456;28;770;-76
2021/11/13 00:30:25;;;;;;;;;;;;;;;;;;348428;28;1018;-77
2021/11/13 00:30:38;;;;;;;;;;;;;;;;;;348281;28;1260;-76
2021/11/13 00:31:14;;;;;;;;;;;;;;;;;;349753;28;944;-76
2021/11/13 00:31:25;;;;;;;;;;;;;;;;;;349788;28;991;-76
2021/11/13 00:31:35;;;;;;;;;;;;;;;;;;349818;28;845;-77
2021/11/13 00:31:46;;;;;;;;;;;;;;;;;;350569;28;932;-77
2021/11/13 00:31:56;;;;;;;;;;;;;;;;;;349720;28;794;-76
2021/11/13 00:32:07;;;;;;;;;;;;;;;;;;349745;28;845;-76
2021/11/13 00:32:17;;;;;;;;;;;;;;;;;;349868;28;853;-77
2021/11/13 00:32:28;;;;;;;;;;;;;;;;;;349846;28;1027;-76
2021/11/13 00:32:38;;;;;;;;;;;;;;;;;;351166;28;837;-77
2021/11/13 00:32:58;;;;;;;;;;;;;;;;;;351222;28;911;-78
2021/11/13 00:33:08;;;;;;;;;;;;;;;;;;351163;28;939;-76
2021/11/13 00:33:19;;;;;;;;;;;;;;;;;;351203;28;1011;-76
2021/11/13 00:33:32;;;;;;;;;;;;;;;;;;351175;28;979;-76
2021/11/13 00:33:43;;;;;;;;;;;;;;;;;;351188;28;861;-76
2021/11/13 00:33:53;;;;;;;;;;;;;;;;;;351226;28;987;-76
2021/11/13 00:34:03;;;;;;;;;;;;;;;;;;351236;28;872;-76
2021/11/13 00:34:26;;;;;;;;;;;;;;;;;;351282;28;912;-76
2021/11/13 00:34:37;;;;;;;;;;;;;;;;;;351314;28;817;-77
2021/11/13 00:35:05;;;;;;;;;;;;;;;;;;351311;28;959;-77
2021/11/13 00:35:31;;;;;;;;;;;;;;;;;;351314;28;928;-77
2021/11/13 00:35:42;;;;;;;;;;;;;;;;;;351020;28;1289;-75
2021/11/13 00:35:52;;;;;;;;;;;;;;;;;;351002;28;908;-75
2021/11/13 00:36:02;;;;;;;;;;;;;;;;;;351129;28;984;-76
2021/11/13 00:36:13;;;;;;;;;;;;;;;;;;351157;28;813;-77
2021/11/13 00:36:49;;;;;;;;;;;;;;;;;;349705;28;1307;-76
2021/11/13 00:37:00;;;;;;;;;;;;;;;;;;348445;28;900;-75
2021/11/13 00:37:11;;;;;;;;;;;;;;;;;;348420;28;817;-76
2021/11/13 00:37:21;;;;;;;;;;;;;;;;;;346811;28;1667;-76
2021/11/13 00:37:32;;;;;;;;;;;;;;;;;;347050;28;941;-76
2021/11/13 00:37:42;;;;;;;;;;;;;;;;;;348274;28;874;-76
2021/11/13 00:37:52;;;;;;;;;;;;;;;;;;348386;28;961;-77
2021/11/13 00:38:03;;;;;;;;;;;;;;;;;;348417;28;810;-76
2021/11/13 00:38:40;;;;;;;;;;;;;;;;;;348333;28;865;-76
2021/11/13 00:38:50;;;;;;;;;;;;;;;;;;349771;28;932;-78
2021/11/13 00:39:00;;;;;;;;;;;;;;;;;;351245;28;884;-77
2021/11/13 00:39:11;;;;;;;;;;;;;;;;;;351185;28;924;-76
2021/11/13 00:39:21;;;;;;;;;;;;;;;;;;351208;28;907;-77
2021/11/13 00:39:32;;;;;;;;;;;;;;;;;;351250;28;991;-75
2021/11/13 00:39:42;;;;;;;;;;;;;;;;;;351223;28;979;-77
2021/11/13 00:39:53;;;;;;;;;;;;;;;;;;351267;28;1003;-77
2021/11/13 00:40:04;;;;;;;;;;;;;;;;;;351335;28;844;-75
2021/11/13 00:40:16;;;;;;;;;;;;;;;;;;351326;28;852;-76
2021/11/13 00:40:44;;;;;;;;;;;;;;;;;;351207;28;607;-78
2021/11/13 00:40:55;;;;;;;;;;;;;;;;;;351119;28;864;-78
2021/11/13 00:41:06;;;;;;;;;;;;;;;;;;351294;28;951;-77
2021/11/13 00:41:17;;;;;;;;;;;;;;;;;;351304;28;790;-77
2021/11/13 00:41:27;;;;;;;;;;;;;;;;;;351347;28;909;-76
2021/11/13 00:41:37;;;;;;;;;;;;;;;;;;351274;28;849;-78
2021/11/13 00:41:48;;;;;;;;;;;;;;;;;;351295;28;809;-78
2021/11/13 00:41:59;;;;;;;;;;;;;;;;;;351278;28;955;-77
2021/11/13 00:42:09;;;;;;;;;;;;;;;;;;351322;28;959;-78
2021/11/13 00:42:20;;;;;;;;;;;;;;;;;;349728;28;1261;-78
2021/11/13 00:42:30;;;;;;;;;;;;;;;;;;349823;28;952;-78
2021/11/13 00:42:42;;;;;;;;;;;;;;;;;;349786;28;873;-77
2021/11/13 00:42:53;;;;;;;;;;;;;;;;;;349808;28;857;-77
2021/11/13 00:43:03;;;;;;;;;;;;;;;;;;349693;28;928;-78
2021/11/13 00:43:14;;;;;;;;;;;;;;;;;;349784;28;1090;-77
2021/11/13 00:43:26;;;;;;;;;;;;;;;;;;348399;28;992;-75
2021/11/13 00:43:37;;;;;;;;;;;;;;;;;;346973;28;1152;-77
2021/11/13 00:43:48;;;;;;;;;;;;;;;;;;347085;28;873;-76
2021/11/13 00:43:59;;;;;;;;;;;;;;;;;;347266;28;1084;-76
2021/11/13 00:44:09;;;;;;;;;;;;;;;;;;347342;28;478;-77
2021/11/13 00:44:20;;;;;;;;;;;;;;;;;;348500;28;984;-77
2021/11/13 00:44:30;;;;;;;;;;;;;;;;;;348665;28;995;-77
2021/11/13 00:44:41;;;;;;;;;;;;;;;;;;347304;28;916;-78
2021/11/13 00:44:51;;;;;;;;;;;;;;;;;;347352;28;817;-78
2021/11/13 00:45:02;;;;;;;;;;;;;;;;;;347236;28;992;-78
2021/11/13 00:45:13;;;;;;;;;;;;;;;;;;347201;28;810;-77
2021/11/13 00:45:23;;;;;;;;;;;;;;;;;;348404;28;964;-76
2021/11/13 00:45:59;;;;;;;;;;;;;;;;;;351247;28;797;-79
2021/11/13 00:46:10;;;;;;;;;;;;;;;;;;351466;28;876;-79
2021/11/13 00:46:20;;;;;;;;;;;;;;;;;;351436;28;853;-80
2021/11/13 00:46:31;;;;;;;;;;;;;;;;;;351403;28;972;-78
2021/11/13 00:46:42;;;;;;;;;;;;;;;;;;351555;28;935;-77
2021/11/13 00:46:52;;;;;;;;;;;;;;;;;;351538;28;896;-76
2021/11/13 00:47:06;;;;;;;;;;;;;;;;;;351508;28;967;-78
2021/11/13 00:47:16;;;;;;;;;;;;;;;;;;351536;28;816;-76
2021/11/13 00:47:27;;;;;;;;;;;;;;;;;;351400;28;908;-77
2021/11/13 00:47:37;;;;;;;;;;;;;;;;;;351521;28;856;-78
2021/11/13 00:47:47;;;;;;;;;;;;;;;;;;351563;28;836;-77
2021/11/13 00:47:58;;;;;;;;;;;;;;;;;;351442;28;861;-76
2021/11/13 00:48:09;;;;;;;;;;;;;;;;;;351497;28;848;-76
2021/11/13 00:48:19;;;;;;;;;;;;;;;;;;351432;28;924;-76
2021/11/13 00:48:30;;;;;;;;;;;;;;;;;;351390;28;935;-77
2021/11/13 00:48:40;;;;;;;;;;;;;;;;;;351424;28;952;-77
2021/11/13 00:48:51;;;;;;;;;;;;;;;;;;351386;28;987;-77
2021/11/13 00:49:27;;;;;;;;;;;;;;;;;;349980;28;999;-78
2021/11/13 00:50:04;;;;;;;;;;;;;;;;;;351403;28;999;-77
2021/11/13 00:50:15;;;;;;;;;;;;;;;;;;349982;28;904;-79
2021/11/13 00:50:25;;;;;;;;;;;;;;;;;;349996;28;1035;-79
2021/11/13 00:50:36;;;;;;;;;;;;;;;;;;350022;28;920;-79
2021/11/13 00:50:47;;;;;;;;;;;;;;;;;;347152;28;1272;-78
2021/11/13 00:50:57;;;;;;;;;;;;;;;;;;347810;28;960;-79
2021/11/13 00:51:08;;;;;;;;;;;;;;;;;;348524;28;1165;-78
2021/11/13 00:51:18;;;;;;;;;;;;;;;;;;348718;28;825;-78
2021/11/13 00:51:28;;;;;;;;;;;;;;;;;;348644;28;975;-79
2021/11/13 00:51:39;;;;;;;;;;;;;;;;;;348720;28;777;-78
2021/11/13 00:51:49;;;;;;;;;;;;;;;;;;348657;28;905;-79
2021/11/13 00:52:00;;;;;;;;;;;;;;;;;;348614;28;1011;-78
2021/11/13 00:52:10;;;;;;;;;;;;;;;;;;349311;28;1023;-79
2021/11/13 00:52:49;;;;;;;;;;;;;;;;;;349994;28;992;-79
2021/11/13 00:53:00;;;;;;;;;;;;;;;;;;350154;28;932;-79
2021/11/13 00:53:11;;;;;;;;;;;;;;;;;;351510;28;809;-79
2021/11/13 00:53:21;;;;;;;;;;;;;;;;;;351410;28;727;-78
2021/11/13 00:53:32;;;;;;;;;;;;;;;;;;351430;28;998;-78
2021/11/13 00:53:43;;;;;;;;;;;;;;;;;;351296;28;1084;-80
2021/11/13 00:53:53;;;;;;;;;;;;;;;;;;351327;28;940;-79
2021/11/13 00:54:04;;;;;;;;;;;;;;;;;;351375;28;707;-78
2021/11/13 00:54:17;;;;;;;;;;;;;;;;;;351391;28;900;-78
2021/11/13 00:54:30;;;;;;;;;;;;;;;;;;351515;28;837;-79
2021/11/13 00:54:40;;;;;;;;;;;;;;;;;;351414;28;920;-78
2021/11/13 00:54:51;;;;;;;;;;;;;;;;;;351496;28;853;-79
2021/11/13 00:55:02;;;;;;;;;;;;;;;;;;351354;28;1016;-79
2021/11/13 00:55:15;;;;;;;;;;;;;;;;;;351421;28;931;-79
2021/11/13 00:55:25;;;;;;;;;;;;;;;;;;351411;28;944;-79
2021/11/13 00:55:36;;;;;;;;;;;;;;;;;;351639;28;872;-76
2021/11/13 00:56:02;;;;;;;;;;;;;;;;;;352815;28;956;-79
2021/11/13 00:56:12;;;;;;;;;;;;;;;;;;352789;28;966;-77
2021/11/13 00:56:23;;;;;;;;;;;;;;;;;;352135;28;1906;-79
2021/11/13 00:56:33;;;;;;;;;;;;;;;;;;351544;28;1015;-79
2021/11/13 00:56:44;;;;;;;;;;;;;;;;;;351508;28;994;-80
2021/11/13 00:56:54;;;;;;;;;;;;;;;;;;351527;28;947;-79
2021/11/13 00:57:07;;;;;;;;;;;;;;;;;;351477;28;873;-79
2021/11/13 00:57:17;;;;;;;;;;;;;;;;;;351508;28;972;-79
2021/11/13 00:57:28;;;;;;;;;;;;;;;;;;351553;28;798;-79
2021/11/13 00:57:38;;;;;;;;;;;;;;;;;;351527;28;928;-78
2021/11/13 00:57:48;;;;;;;;;;;;;;;;;;351485;28;900;-78
2021/11/13 00:58:26;;;;;;;;;;;;;;;;;;351537;28;821;-79
2021/11/13 00:59:03;;;;;;;;;;;;;;;;;;351448;28;1019;-79
2021/11/13 00:59:13;;;;;;;;;;;;;;;;;;351458;28;928;-78
2021/11/13 00:59:24;;;;;;;;;;;;;;;;;;351470;28;995;-78
2021/11/13 00:59:35;;;;;;;;;;;;;;;;;;351488;28;971;-79
2021/11/13 00:59:45;;;;;;;;;;;;;;;;;;351542;28;1018;-77
2021/11/13 00:59:56;;;;;;;;;;;;;;;;;;351469;28;809;-79
2021/11/13 01:00:07;;;;;;;;;;;;;;;;;;351384;28;1134;-78
2021/11/13 01:00:38;;;;;;;;;;;;;;;;;;351413;28;833;-78
2021/11/13 01:00:49;;;;;;;;;;;;;;;;;;347046;28;1031;-79
2021/11/13 01:00:59;;;;;;;;;;;;;;;;;;347017;28;1067;-78
2021/11/13 01:01:10;;;;;;;;;;;;;;;;;;347064;28;940;-78
2021/11/13 01:01:21;;;;;;;;;;;;;;;;;;347246;28;880;-79
2021/11/13 01:01:34;;;;;;;;;;;;;;;;;;347226;28;1032;-78
2021/11/13 01:01:44;;;;;;;;;;;;;;;;;;347247;28;996;-79
2021/11/13 01:01:55;;;;;;;;;;;;;;;;;;347174;28;959;-78
2021/11/13 01:02:06;;;;;;;;;;;;;;;;;;347209;28;913;-79
2021/11/13 01:02:16;;;;;;;;;;;;;;;;;;347207;28;739;-79
2021/11/13 01:02:27;;;;;;;;;;;;;;;;;;347225;28;1031;-78
2021/11/13 01:02:38;;;;;;;;;;;;;;;;;;347241;28;810;-80
2021/11/13 01:02:49;;;;;;;;;;;;;;;;;;347201;28;809;-79
2021/11/13 01:02:59;;;;;;;;;;;;;;;;;;347109;28;868;-80
2021/11/13 01:03:10;;;;;;;;;;;;;;;;;;347264;28;1015;-78
2021/11/13 01:03:20;;;;;;;;;;;;;;;;;;347240;28;712;-76
2021/11/13 01:03:32;;;;;;;;;;;;;;;;;;347134;28;991;-79
2021/11/13 01:03:57;;;;;;;;;;;;;;;;;;347142;28;941;-79
2021/11/13 01:04:08;;;;;;;;;;;;;;;;;;347195;28;995;-77
2021/11/13 01:04:19;;;;;;;;;;;;;;;;;;347186;28;971;-79
2021/11/13 01:04:29;;;;;;;;;;;;;;;;;;347236;28;802;-78
2021/11/13 01:04:39;;;;;;;;;;;;;;;;;;347191;28;976;-78
2021/11/13 01:04:50;;;;;;;;;;;;;;;;;;347152;28;1001;-78
2021/11/13 01:05:00;;;;;;;;;;;;;;;;;;347207;28;1008;-79
2021/11/13 01:05:11;;;;;;;;;;;;;;;;;;347202;28;944;-78
2021/11/13 01:05:21;;;;;;;;;;;;;;;;;;347184;28;913;-79
2021/11/13 01:05:32;;;;;;;;;;;;;;;;;;347185;28;928;-79
2021/11/13 01:05:42;;;;;;;;;;;;;;;;;;347240;28;818;-79
2021/11/13 01:05:52;;;;;;;;;;;;;;;;;;347184;28;1020;-78
2021/11/13 01:06:03;;;;;;;;;;;;;;;;;;347151;28;1032;-79
2021/11/13 01:06:13;;;;;;;;;;;;;;;;;;347087;28;941;-79
2021/11/13 01:06:24;;;;;;;;;;;;;;;;;;347155;28;969;-79
2021/11/13 01:06:34;;;;;;;;;;;;;;;;;;347232;28;928;-79
2021/11/13 01:06:44;;;;;;;;;;;;;;;;;;347168;28;1032;-78
2021/11/13 01:06:55;;;;;;;;;;;;;;;;;;347172;28;1182;-79
2021/11/13 01:07:31;;;;;;;;;;;;;;;;;;347061;28;893;-79
2021/11/13 01:07:42;;;;;;;;;;;;;;;;;;345749;28;972;-77
2021/11/13 01:07:53;;;;;;;;;;;;;;;;;;345877;28;873;-78
2021/11/13 01:08:03;;;;;;;;;;;;;;;;;;345797;28;948;-79
2021/11/13 01:08:14;;;;;;;;;;;;;;;;;;345811;28;1021;-78
2021/11/13 01:08:24;;;;;;;;;;;;;;;;;;345851;28;913;-78
2021/11/13 01:08:48;;;;;;;;;;;;;;;;;;345851;28;973;-79
2021/11/13 01:08:59;;;;;;;;;;;;;;;;;;345827;28;803;-78
2021/11/13 01:09:09;;;;;;;;;;;;;;;;;;345839;28;799;-80
2021/11/13 01:09:22;;;;;;;;;;;;;;;;;;345884;28;850;-79
2021/11/13 01:09:59;;;;;;;;;;;;;;;;;;347126;28;952;-79
2021/11/13 01:10:10;;;;;;;;;;;;;;;;;;347207;28;901;-78
2021/11/13 01:10:20;;;;;;;;;;;;;;;;;;347224;28;868;-77
2021/11/13 01:10:31;;;;;;;;;;;;;;;;;;347287;28;818;-78
2021/11/13 01:10:41;;;;;;;;;;;;;;;;;;347161;28;1154;-78
2021/11/13 01:10:52;;;;;;;;;;;;;;;;;;347235;28;913;-78
2021/11/13 01:11:34;;;;;;;;;;;;;;;;;;347223;28;811;-79
2021/11/13 01:12:00;;;;;;;;;;;;;;;;;;347150;28;1035;-78
2021/11/13 01:12:11;;;;;;;;;;;;;;;;;;347219;28;911;-77
2021/11/13 01:12:21;;;;;;;;;;;;;;;;;;347140;28;940;-77
2021/11/13 01:12:32;;;;;;;;;;;;;;;;;;347173;28;941;-77
2021/11/13 01:12:42;;;;;;;;;;;;;;;;;;347152;28;1427;-77
2021/11/13 01:12:53;;;;;;;;;;;;;;;;;;347257;28;865;-79
2021/11/13 01:13:12;;;;;;;;;;;;;;;;;;347183;28;1050;-79
2021/11/13 01:13:23;;;;;;;;;;;;;;;;;;347160;28;1051;-79
2021/11/13 01:13:33;;;;;;;;;;;;;;;;;;347206;28;984;-79
2021/11/13 01:14:56;;;;;;;;;;;;;;;;;;343143;28;977;-79
2021/11/13 01:15:21;;;;;;;;;;;;;;;;;;343129;28;980;-79
2021/11/13 01:15:32;;;;;;;;;;;;;;;;;;343176;28;941;-78
2021/11/13 01:15:43;;;;;;;;;;;;;;;;;;343133;28;1096;-78
2021/11/13 01:15:55;;;;;;;;;;;;;;;;;;343136;28;838;-80
2021/11/13 01:16:05;;;;;;;;;;;;;;;;;;343118;28;1060;-79
2021/11/13 01:16:42;;;;;;;;;;;;;;;;;;343125;28;807;-79
2021/11/13 01:16:53;;;;;;;;;;;;;;;;;;343150;28;1102;-79
2021/11/13 01:17:06;;;;;;;;;;;;;;;;;;343101;28;1032;-79
2021/11/13 01:17:16;;;;;;;;;;;;;;;;;;343064;28;1414;-79
2021/11/13 01:17:27;;;;;;;;;;;;;;;;;;343140;28;814;-79
2021/11/13 01:17:38;;;;;;;;;;;;;;;;;;343128;28;913;-78
2021/11/13 01:17:49;;;;;;;;;;;;;;;;;;343179;28;964;-79
2021/11/13 01:17:59;;;;;;;;;;;;;;;;;;343177;28;981;-78
2021/11/13 01:18:09;;;;;;;;;;;;;;;;;;343113;28;984;-78
2021/11/13 01:18:20;;;;;;;;;;;;;;;;;;343060;28;925;-79
2021/11/13 01:18:30;;;;;;;;;;;;;;;;;;343173;28;899;-79
2021/11/13 01:18:41;;;;;;;;;;;;;;;;;;343089;28;965;-79
2021/11/13 01:18:51;;;;;;;;;;;;;;;;;;343123;28;964;-78
2021/11/13 01:19:02;;;;;;;;;;;;;;;;;;343141;28;977;-78
2021/11/13 01:19:13;;;;;;;;;;;;;;;;;;343140;28;929;-79
2021/11/13 01:19:23;;;;;;;;;;;;;;;;;;343078;28;956;-78
2021/11/13 01:19:34;;;;;;;;;;;;;;;;;;343147;28;917;-78
2021/11/13 01:19:46;;;;;;;;;;;;;;;;;;342963;28;1006;-79
2021/11/13 01:19:56;;;;;;;;;;;;;;;;;;343129;28;929;-79
2021/11/13 01:20:11;;;;;;;;;;;;;;;;;;343113;28;917;-78
2021/11/13 01:20:52;;;;;;;;;;;;;;;;;;340271;29;1194;-78
2021/11/13 01:21:03;;;;;;;;;;;;;;;;;;340528;29;1100;-78
2021/11/13 01:21:13;;;;;;;;;;;;;;;;;;341817;29;810;-79
2021/11/13 01:21:24;;;;;;;;;;;;;;;;;;341733;29;894;-77
2021/11/13 01:21:34;;;;;;;;;;;;;;;;;;341718;29;818;-78
2021/11/13 01:21:45;;;;;;;;;;;;;;;;;;341802;29;937;-78
2021/11/13 01:21:55;;;;;;;;;;;;;;;;;;341841;29;783;-76
2021/11/13 01:22:21;;;;;;;;;;;;;;;;;;341802;29;969;-76
2021/11/13 01:22:31;;;;;;;;;;;;;;;;;;341825;29;830;-79
2021/11/13 01:22:42;;;;;;;;;;;;;;;;;;341847;29;826;-78
2021/11/13 01:22:52;;;;;;;;;;;;;;;;;;343030;28;962;-77
2021/11/13 01:23:48;;;;;;;;;;;;;;;;;;343112;28;1004;-78
2021/11/13 01:23:58;;;;;;;;;;;;;;;;;;343072;28;941;-78
2021/11/13 01:24:09;;;;;;;;;;;;;;;;;;343109;28;811;-79
2021/11/13 01:24:19;;;;;;;;;;;;;;;;;;343065;28;1000;-77
2021/11/13 01:24:29;;;;;;;;;;;;;;;;;;343138;28;1015;-79
2021/11/13 01:24:40;;;;;;;;;;;;;;;;;;343119;28;917;-79
2021/11/13 01:24:51;;;;;;;;;;;;;;;;;;343145;28;862;-79
2021/11/13 01:25:01;;;;;;;;;;;;;;;;;;343162;28;870;-78
2021/11/13 01:25:12;;;;;;;;;;;;;;;;;;343009;28;929;-78
2021/11/13 01:25:22;;;;;;;;;;;;;;;;;;343076;28;937;-78
2021/11/13 01:25:33;;;;;;;;;;;;;;;;;;343186;28;1036;-79
2021/11/13 01:25:43;;;;;;;;;;;;;;;;;;343179;28;846;-79
2021/11/13 01:25:54;;;;;;;;;;;;;;;;;;343210;28;961;-79
2021/11/13 01:26:04;;;;;;;;;;;;;;;;;;343167;28;905;-77
2021/11/13 01:26:15;;;;;;;;;;;;;;;;;;343093;28;842;-78
2021/11/13 01:26:25;;;;;;;;;;;;;;;;;;343002;28;1032;-78
2021/11/13 01:26:37;;;;;;;;;;;;;;;;;;343073;28;1126;-78
2021/11/13 01:26:49;;;;;;;;;;;;;;;;;;341813;29;790;-78
2021/11/13 01:27:31;;;;;;;;;;;;;;;;;;341646;29;982;-78
2021/11/13 01:27:42;;;;;;;;;;;;;;;;;;341686;29;1259;-79
2021/11/13 01:27:52;;;;;;;;;;;;;;;;;;341690;28;1164;-78
2021/11/13 01:28:03;;;;;;;;;;;;;;;;;;341807;29;819;-78
2021/11/13 01:28:13;;;;;;;;;;;;;;;;;;341817;29;972;-78
2021/11/13 01:28:23;;;;;;;;;;;;;;;;;;341716;29;798;-79
2021/11/13 01:28:34;;;;;;;;;;;;;;;;;;341774;29;854;-79
2021/11/13 01:28:44;;;;;;;;;;;;;;;;;;342579;28;1009;-79
2021/11/13 01:28:55;;;;;;;;;;;;;;;;;;343150;28;957;-78
2021/11/13 01:29:05;;;;;;;;;;;;;;;;;;343197;28;870;-79
2021/11/13 01:29:16;;;;;;;;;;;;;;;;;;341743;28;850;-78
2021/11/13 01:29:26;;;;;;;;;;;;;;;;;;341713;28;1013;-78
2021/11/13 01:29:37;;;;;;;;;;;;;;;;;;341825;29;837;-78
2021/11/13 01:29:48;;;;;;;;;;;;;;;;;;341434;28;909;-79
2021/11/13 01:29:59;;;;;;;;;;;;;;;;;;341811;29;794;-79
2021/11/13 01:30:10;;;;;;;;;;;;;;;;;;341763;29;517;-79
2021/11/13 01:30:47;;;;;;;;;;;;;;;;;;341830;29;841;-79
2021/11/13 01:30:58;;;;;;;;;;;;;;;;;;341805;29;940;-78
2021/11/13 01:31:08;;;;;;;;;;;;;;;;;;341962;28;1086;-78
2021/11/13 01:31:19;;;;;;;;;;;;;;;;;;343139;28;913;-77
2021/11/13 01:31:29;;;;;;;;;;;;;;;;;;343128;28;901;-78
2021/11/13 01:31:40;;;;;;;;;;;;;;;;;;342954;28;940;-78
2021/11/13 01:31:50;;;;;;;;;;;;;;;;;;342992;28;728;-78
2021/11/13 01:32:01;;;;;;;;;;;;;;;;;;343031;28;815;-78
2021/11/13 01:32:11;;;;;;;;;;;;;;;;;;343067;28;897;-79
2021/11/13 01:32:21;;;;;;;;;;;;;;;;;;343105;28;810;-78
2021/11/13 01:32:32;;;;;;;;;;;;;;;;;;343088;28;816;-78
2021/11/13 01:32:42;;;;;;;;;;;;;;;;;;343129;28;909;-78
2021/11/13 01:32:53;;;;;;;;;;;;;;;;;;343103;28;933;-78
2021/11/13 01:33:03;;;;;;;;;;;;;;;;;;343123;28;813;-78
2021/11/13 01:33:14;;;;;;;;;;;;;;;;;;343111;28;964;-78
2021/11/13 01:33:24;;;;;;;;;;;;;;;;;;343072;28;1180;-78
2021/11/13 01:33:35;;;;;;;;;;;;;;;;;;343103;28;861;-78
2021/11/13 01:33:46;;;;;;;;;;;;;;;;;;343084;28;902;-79
2021/11/13 01:33:57;;;;;;;;;;;;;;;;;;343169;28;1059;-79
2021/11/13 01:34:07;;;;;;;;;;;;;;;;;;342989;28;608;-77
2021/11/13 01:34:33;;;;;;;;;;;;;;;;;;343115;28;1135;-79
2021/11/13 01:35:03;;;;;;;;;;;;;;;;;;343129;28;609;-77
2021/11/13 01:35:14;;;;;;;;;;;;;;;;;;343030;28;1248;-78